createdAt,value
2022-11-27T00:01:54.753Z,17.63
2022-11-27T00:04:21.891Z,17.57
2022-11-27T00:06:48.372Z,17.52
2022-11-27T00:09:14.690Z,17.46
2022-11-27T00:11:42.126Z,17.41
2022-11-27T00:14:08.538Z,17.36
2022-11-27T00:16:36.363Z,17.30
2022-11-27T00:19:02.613Z,17.23
2022-11-27T00:21:33.082Z,17.19
2022-11-27T00:24:00.467Z,17.15
2022-11-27T00:26:28.264Z,17.11
2022-11-27T00:28:57.479Z,17.05
2022-11-27T00:31:24.332Z,17.01
2022-11-27T00:33:50.601Z,16.96
2022-11-27T00:36:17.899Z,16.91
2022-11-27T00:38:48.899Z,16.86
2022-11-27T00:41:16.992Z,16.81
2022-11-27T00:43:44.927Z,16.76
2022-11-27T00:46:11.725Z,16.71
2022-11-27T00:48:38.050Z,16.68
2022-11-27T00:51:04.495Z,16.62
2022-11-27T00:53:31.189Z,16.58
2022-11-27T00:55:57.496Z,16.55
2022-11-27T00:58:24.252Z,16.50
2022-11-27T01:00:50.538Z,16.47
2022-11-27T01:03:16.948Z,16.43
2022-11-27T01:05:43.998Z,16.39
2022-11-27T01:08:11.303Z,16.36
2022-11-27T01:10:38.384Z,16.31
2022-11-27T01:13:05.474Z,16.28
2022-11-27T01:15:31.777Z,16.25
2022-11-27T01:17:59.648Z,16.21
2022-11-27T01:20:27.048Z,16.18
2022-11-27T01:22:55.662Z,16.15
2022-11-27T01:25:26.641Z,16.11
2022-11-27T01:27:53.318Z,16.09
2022-11-27T01:30:21.233Z,16.05
2022-11-27T01:32:49.789Z,16.01
2022-11-27T01:35:17.725Z,15.98
2022-11-27T01:37:44.058Z,15.96
2022-11-27T01:40:10.341Z,15.93
2022-11-27T01:42:36.716Z,15.91
2022-11-27T01:45:03.366Z,15.90
2022-11-27T01:47:29.729Z,15.86
2022-11-27T01:49:57.762Z,15.84
2022-11-27T01:52:25.472Z,15.82
2022-11-27T01:54:54.023Z,15.77
2022-11-27T01:57:20.279Z,15.75
2022-11-27T01:59:47.493Z,15.73
2022-11-27T02:02:14.374Z,15.69
2022-11-27T02:04:41.105Z,15.66
2022-11-27T02:07:07.545Z,15.64
2022-11-27T02:09:34.470Z,15.60
2022-11-27T02:12:01.626Z,15.58
2022-11-27T02:14:28.229Z,15.55
2022-11-27T02:16:55.797Z,15.52
2022-11-27T02:19:23.646Z,15.50
2022-11-27T02:21:54.178Z,15.46
2022-11-27T02:24:20.786Z,15.44
2022-11-27T02:26:47.893Z,15.41
2022-11-27T02:29:14.235Z,15.38
2022-11-27T02:31:40.552Z,15.35
2022-11-27T02:34:07.859Z,15.33
2022-11-27T02:36:35.182Z,15.30
2022-11-27T02:39:03.384Z,15.28
2022-11-27T02:41:29.717Z,15.26
2022-11-27T02:43:58.040Z,15.23
2022-11-27T02:46:24.651Z,15.20
2022-11-27T02:48:52.776Z,15.18
2022-11-27T02:51:19.658Z,15.17
2022-11-27T02:53:47.311Z,15.13
2022-11-27T02:56:13.695Z,15.11
2022-11-27T02:58:40.554Z,15.08
2022-11-27T03:01:08.047Z,15.07
2022-11-27T03:03:34.887Z,15.04
2022-11-27T03:06:01.144Z,15.01
2022-11-27T03:08:28.895Z,14.99
2022-11-27T03:10:55.475Z,14.97
2022-11-27T03:13:23.667Z,14.94
2022-11-27T03:15:50.040Z,14.92
2022-11-27T03:18:16.820Z,14.89
2022-11-27T03:20:44.668Z,14.85
2022-11-27T03:23:11.054Z,14.83
2022-11-27T03:25:37.510Z,14.80
2022-11-27T03:28:04.197Z,14.76
2022-11-27T03:30:30.871Z,14.73
2022-11-27T03:32:59.821Z,14.70
2022-11-27T03:35:27.886Z,14.65
2022-11-27T03:37:54.252Z,14.62
2022-11-27T03:40:21.752Z,14.59
2022-11-27T03:42:48.005Z,14.56
2022-11-27T03:45:14.315Z,14.52
2022-11-27T03:47:40.724Z,14.50
2022-11-27T03:50:09.047Z,14.48
2022-11-27T03:52:36.854Z,14.44
2022-11-27T03:55:03.267Z,14.41
2022-11-27T03:57:29.640Z,14.37
2022-11-27T03:59:55.927Z,14.34
2022-11-27T04:02:23.863Z,14.32
2022-11-27T04:04:52.348Z,14.29
2022-11-27T04:07:20.349Z,14.25
2022-11-27T04:09:47.531Z,14.24
2022-11-27T04:12:15.372Z,14.20
2022-11-27T04:14:41.859Z,14.17
2022-11-27T04:17:08.882Z,14.14
2022-11-27T04:19:35.379Z,14.11
2022-11-27T04:22:07.916Z,14.08
2022-11-27T04:24:35.050Z,14.05
2022-11-27T04:27:01.401Z,14.01
2022-11-27T04:29:27.881Z,13.99
2022-11-27T04:31:54.377Z,13.95
2022-11-27T04:34:20.702Z,13.92
2022-11-27T04:36:47.020Z,13.90
2022-11-27T04:39:13.329Z,13.90
2022-11-27T04:41:41.800Z,13.93
2022-11-27T04:44:08.062Z,14.02
2022-11-27T04:46:35.757Z,14.15
2022-11-27T04:49:02.846Z,14.28
2022-11-27T04:51:29.157Z,14.41
2022-11-27T04:53:55.429Z,14.52
2022-11-27T04:56:22.000Z,14.68
2022-11-27T04:58:48.851Z,14.82
2022-11-27T05:01:15.495Z,14.94
2022-11-27T05:03:41.910Z,15.06
2022-11-27T05:06:08.374Z,15.15
2022-11-27T05:08:34.689Z,15.26
2022-11-27T05:11:02.011Z,15.36
2022-11-27T05:13:28.311Z,15.45
2022-11-27T05:15:54.728Z,15.55
2022-11-27T05:18:23.408Z,15.63
2022-11-27T05:20:49.717Z,15.71
2022-11-27T05:23:16.080Z,15.79
2022-11-27T05:25:42.596Z,15.87
2022-11-27T05:28:09.763Z,15.94
2022-11-27T05:30:37.609Z,16.01
2022-11-27T05:33:04.028Z,16.07
2022-11-27T05:35:32.714Z,16.13
2022-11-27T05:37:59.186Z,16.19
2022-11-27T05:40:26.387Z,16.25
2022-11-27T05:42:53.009Z,16.29
2022-11-27T05:45:19.451Z,16.33
2022-11-27T05:47:45.832Z,16.37
2022-11-27T05:50:12.220Z,16.39
2022-11-27T05:52:38.670Z,16.43
2022-11-27T05:55:05.073Z,16.46
2022-11-27T05:57:31.763Z,16.48
2022-11-27T05:59:58.160Z,16.50
2022-11-27T06:02:29.209Z,16.53
2022-11-27T06:04:55.875Z,16.55
2022-11-27T06:07:22.268Z,16.60
2022-11-27T06:09:48.608Z,16.64
2022-11-27T06:12:14.820Z,16.65
2022-11-27T06:14:41.388Z,16.66
2022-11-27T06:17:07.949Z,16.68
2022-11-27T06:19:34.816Z,16.71
2022-11-27T06:22:01.252Z,16.75
2022-11-27T06:24:27.550Z,16.78
2022-11-27T06:26:53.730Z,16.80
2022-11-27T06:29:20.170Z,16.83
2022-11-27T06:31:46.860Z,16.88
2022-11-27T06:34:14.521Z,16.90
2022-11-27T06:36:42.274Z,16.92
2022-11-27T06:42:01.209Z,16.99
2022-11-27T06:44:27.486Z,17.03
2022-11-27T06:46:55.359Z,17.08
2022-11-27T06:49:23.659Z,17.10
2022-11-27T06:51:49.950Z,17.13
2022-11-27T06:54:16.313Z,17.18
2022-11-27T06:56:44.086Z,17.21
2022-11-27T06:59:10.883Z,17.25
2022-11-27T07:01:40.554Z,17.27
2022-11-27T07:04:07.294Z,17.33
2022-11-27T07:06:35.275Z,17.37
2022-11-27T07:09:01.743Z,17.40
2022-11-27T07:11:29.015Z,17.45
2022-11-27T07:13:57.014Z,17.48
2022-11-27T07:16:23.489Z,17.51
2022-11-27T07:18:52.704Z,17.51
2022-11-27T07:21:19.300Z,17.55
2022-11-27T07:23:45.689Z,17.61
2022-11-27T07:26:12.076Z,17.62
2022-11-27T07:28:38.361Z,17.63
2022-11-27T07:31:06.800Z,17.64
2022-11-27T07:33:33.908Z,17.65
2022-11-27T07:36:00.307Z,17.66
2022-11-27T07:38:26.708Z,17.69
2022-11-27T07:40:55.293Z,17.72
2022-11-27T07:43:22.589Z,17.74
2022-11-27T07:45:50.359Z,17.76
2022-11-27T07:48:16.665Z,17.81
2022-11-27T07:50:42.992Z,17.88
2022-11-27T07:53:13.585Z,17.97
2022-11-27T07:55:39.887Z,18.06
2022-11-27T07:58:06.686Z,18.16
2022-11-27T08:00:34.478Z,18.29
2022-11-27T08:03:00.917Z,18.35
2022-11-27T08:05:27.375Z,18.38
2022-11-27T08:07:54.937Z,18.41
2022-11-27T08:10:21.357Z,18.44
2022-11-27T08:12:48.683Z,18.49
2022-11-27T08:15:15.043Z,18.52
2022-11-27T08:17:42.807Z,18.54
2022-11-27T08:20:09.440Z,18.55
2022-11-27T08:22:35.722Z,18.56
2022-11-27T08:25:02.621Z,18.57
2022-11-27T08:27:28.871Z,18.55
2022-11-27T08:29:57.159Z,18.58
2022-11-27T08:32:23.857Z,18.57
2022-11-27T08:34:50.155Z,18.56
2022-11-27T08:37:17.142Z,18.58
2022-11-27T08:39:43.392Z,18.57
2022-11-27T08:42:09.696Z,18.54
2022-11-27T08:44:35.964Z,18.57
2022-11-27T08:47:03.105Z,18.58
2022-11-27T08:49:29.405Z,18.53
2022-11-27T08:51:57.975Z,18.51
2022-11-27T08:54:25.976Z,18.48
2022-11-27T08:56:53.679Z,18.48
2022-11-27T08:59:19.950Z,18.47
2022-11-27T09:01:46.244Z,18.44
2022-11-27T09:04:12.773Z,18.46
2022-11-27T09:06:39.571Z,18.49
2022-11-27T09:09:06.010Z,18.49
2022-11-27T09:11:33.287Z,18.47
2022-11-27T09:14:01.462Z,18.50
2022-11-27T09:16:28.371Z,18.52
2022-11-27T09:18:54.639Z,18.52
2022-11-27T09:21:20.946Z,18.54
2022-11-27T09:23:49.082Z,18.58
2022-11-27T09:26:15.456Z,18.65
2022-11-27T09:28:43.139Z,18.70
2022-11-27T09:31:10.206Z,18.67
2022-11-27T09:33:37.340Z,18.65
2022-11-27T09:36:04.225Z,18.65
2022-11-27T09:38:30.599Z,18.66
2022-11-27T09:41:02.872Z,18.69
2022-11-27T09:43:30.310Z,18.72
2022-11-27T09:45:56.612Z,18.77
2022-11-27T09:48:24.415Z,18.77
2022-11-27T09:50:50.798Z,18.77
2022-11-27T09:53:17.081Z,18.78
2022-11-27T09:55:44.078Z,18.79
2022-11-27T09:58:12.372Z,18.77
2022-11-27T10:00:39.349Z,18.80
2022-11-27T10:03:07.213Z,18.78
2022-11-27T10:05:33.887Z,18.77
2022-11-27T10:08:06.082Z,18.79
2022-11-27T10:10:33.064Z,18.85
2022-11-27T10:12:59.430Z,18.94
2022-11-27T10:15:25.685Z,18.97
2022-11-27T10:17:51.953Z,19.00
2022-11-27T10:20:18.287Z,18.96
2022-11-27T10:22:44.680Z,18.95
2022-11-27T10:25:12.064Z,18.95
2022-11-27T10:27:38.411Z,18.92
2022-11-27T10:30:04.693Z,18.90
2022-11-27T10:32:54.530Z,18.88
2022-11-27T10:35:17.267Z,18.86
2022-11-27T10:37:43.611Z,18.86
2022-11-27T10:40:11.552Z,18.86
2022-11-27T10:42:38.063Z,18.86
2022-11-27T10:45:04.329Z,18.83
2022-11-27T10:47:33.655Z,18.81
2022-11-27T10:50:00.434Z,18.80
2022-11-27T10:52:27.157Z,18.78
2022-11-27T10:54:53.387Z,18.77
2022-11-27T10:57:19.917Z,18.75
2022-11-27T10:59:46.221Z,18.75
2022-11-27T11:02:14.684Z,18.73
2022-11-27T11:04:41.322Z,18.73
2022-11-27T11:07:08.048Z,18.73
2022-11-27T11:09:34.601Z,18.73
2022-11-27T11:12:00.901Z,18.72
2022-11-27T11:14:27.692Z,18.71
2022-11-27T11:16:54.737Z,18.70
2022-11-27T11:19:21.560Z,18.70
2022-11-27T11:21:48.954Z,18.70
2022-11-27T11:24:15.850Z,18.69
2022-11-27T11:26:42.224Z,18.70
2022-11-27T11:29:09.322Z,18.71
2022-11-27T11:31:37.770Z,18.71
2022-11-27T11:34:06.355Z,18.71
2022-11-27T11:36:32.713Z,18.72
2022-11-27T11:39:00.859Z,18.74
2022-11-27T11:41:27.606Z,18.73
2022-11-27T11:43:53.963Z,18.74
2022-11-27T11:46:20.904Z,18.74
2022-11-27T11:48:47.245Z,18.74
2022-11-27T11:51:14.813Z,18.74
2022-11-27T11:53:41.069Z,18.72
2022-11-27T11:56:07.353Z,18.71
2022-11-27T11:58:33.598Z,18.70
2022-11-27T12:01:26.000Z,18.70
2022-11-27T12:03:49.122Z,18.71
2022-11-27T12:06:16.036Z,18.69
2022-11-27T12:08:42.297Z,18.68
2022-11-27T12:11:08.584Z,18.68
2022-11-27T12:13:35.547Z,18.67
2022-11-27T12:16:03.412Z,18.67
2022-11-27T12:18:29.700Z,18.66
2022-11-27T12:20:55.970Z,18.65
2022-11-27T12:23:22.227Z,18.64
2022-11-27T12:25:50.036Z,18.63
2022-11-27T12:28:16.633Z,18.62
2022-11-27T12:30:42.911Z,18.61
2022-11-27T12:33:09.270Z,18.60
2022-11-27T12:35:35.646Z,18.58
2022-11-27T12:38:03.606Z,18.57
2022-11-27T12:40:31.981Z,18.57
2022-11-27T12:42:58.270Z,18.57
2022-11-27T12:45:24.620Z,18.56
2022-11-27T12:47:57.362Z,18.56
2022-11-27T12:50:23.606Z,18.57
2022-11-27T12:52:49.850Z,18.57
2022-11-27T12:55:16.101Z,18.56
2022-11-27T12:57:42.371Z,18.54
2022-11-27T13:00:08.848Z,18.55
2022-11-27T13:02:35.428Z,18.54
2022-11-27T13:05:01.771Z,18.53
2022-11-27T13:07:28.074Z,18.54
2022-11-27T13:09:56.532Z,18.53
2022-11-27T13:12:23.052Z,18.54
2022-11-27T13:14:52.634Z,18.54
2022-11-27T13:17:19.304Z,18.54
2022-11-27T13:19:45.666Z,18.41
2022-11-27T13:22:12.073Z,18.56
2022-11-27T13:24:38.913Z,18.55
2022-11-27T13:27:05.583Z,18.56
2022-11-27T13:29:32.095Z,18.57
2022-11-27T13:31:59.125Z,18.57
2022-11-27T13:34:25.437Z,18.57
2022-11-27T13:36:51.825Z,18.59
2022-11-27T13:39:18.384Z,18.59
2022-11-27T13:41:44.732Z,18.58
2022-11-27T13:44:11.784Z,18.58
2022-11-27T13:46:38.696Z,18.59
2022-11-27T13:49:05.170Z,18.58
2022-11-27T13:51:33.331Z,18.58
2022-11-27T13:53:59.809Z,18.57
2022-11-27T13:56:26.137Z,18.56
2022-11-27T13:58:52.584Z,18.55
2022-11-27T14:01:20.434Z,18.53
2022-11-27T14:03:46.762Z,18.52
2022-11-27T14:06:13.948Z,18.50
2022-11-27T14:08:40.491Z,18.49
2022-11-27T14:11:06.880Z,18.49
2022-11-27T14:13:33.156Z,18.49
2022-11-27T14:15:59.483Z,18.48
2022-11-27T14:18:27.542Z,18.46
2022-11-27T14:20:53.887Z,18.46
2022-11-27T14:23:21.778Z,18.44
2022-11-27T14:25:48.085Z,18.43
2022-11-27T14:28:14.333Z,18.41
2022-11-27T14:30:40.619Z,18.39
2022-11-27T14:33:07.105Z,18.38
2022-11-27T14:35:33.852Z,18.36
2022-11-27T14:38:00.166Z,18.35
2022-11-27T14:40:26.456Z,18.33
2022-11-27T14:42:54.086Z,18.30
2022-11-27T14:45:20.321Z,18.29
2022-11-27T14:47:46.933Z,18.28
2022-11-27T14:50:13.675Z,18.28
2022-11-27T14:52:39.907Z,18.25
2022-11-27T14:55:06.212Z,18.24
2022-11-27T14:57:32.577Z,18.23
2022-11-27T14:59:58.957Z,18.21
2022-11-27T15:02:29.101Z,18.20
2022-11-27T15:04:55.929Z,18.18
2022-11-27T15:07:22.524Z,18.16
2022-11-27T15:09:49.162Z,18.18
2022-11-27T15:12:16.039Z,18.16
2022-11-27T15:14:42.306Z,18.15
2022-11-27T15:17:08.578Z,18.14
2022-11-27T15:19:35.499Z,18.12
2022-11-27T15:22:01.849Z,18.14
2022-11-27T15:24:28.185Z,18.15
2022-11-27T15:26:57.545Z,18.16
2022-11-27T15:29:24.576Z,18.10
2022-11-27T15:31:50.911Z,18.33
2022-11-27T15:34:17.573Z,18.45
2022-11-27T15:36:43.823Z,18.56
2022-11-27T15:39:10.628Z,18.66
2022-11-27T15:41:42.307Z,18.72
2022-11-27T15:44:10.613Z,18.77
2022-11-27T15:46:36.923Z,18.79
2022-11-27T15:49:03.204Z,18.80
2022-11-27T15:51:29.584Z,18.80
2022-11-27T15:53:55.799Z,18.79
2022-11-27T15:56:22.108Z,18.79
2022-11-27T15:58:48.343Z,18.78
2022-11-27T16:01:14.781Z,18.77
2022-11-27T16:03:41.510Z,18.76
2022-11-27T16:06:07.777Z,18.75
2022-11-27T16:08:34.060Z,18.72
2022-11-27T16:11:00.406Z,18.71
2022-11-27T16:13:26.647Z,18.68
2022-11-27T16:15:53.539Z,18.65
2022-11-27T16:18:20.513Z,18.64
2022-11-27T16:20:46.781Z,18.61
2022-11-27T16:23:13.029Z,18.57
2022-11-27T16:25:39.396Z,18.54
2022-11-27T16:28:06.563Z,18.51
2022-11-27T16:30:33.605Z,18.48
2022-11-27T16:33:00.955Z,18.48
2022-11-27T16:35:27.244Z,18.46
2022-11-27T16:37:53.591Z,18.47
2022-11-27T16:40:19.841Z,18.47
2022-11-27T16:42:47.282Z,18.46
2022-11-27T16:45:13.521Z,18.45
2022-11-27T16:47:39.820Z,18.44
2022-11-27T16:50:06.210Z,18.44
2022-11-27T16:52:32.760Z,18.44
2022-11-27T16:54:59.202Z,18.44
2022-11-27T16:57:25.981Z,18.43
2022-11-27T16:59:52.256Z,18.41
2022-11-27T17:02:19.094Z,18.42
2022-11-27T17:04:45.712Z,18.42
2022-11-27T17:07:12.003Z,18.41
2022-11-27T17:09:38.266Z,18.41
2022-11-27T17:12:05.095Z,18.41
2022-11-27T17:14:31.744Z,18.40
2022-11-27T17:16:58.051Z,18.39
2022-11-27T17:19:24.560Z,18.39
2022-11-27T17:21:50.857Z,18.39
2022-11-27T17:24:17.104Z,18.38
2022-11-27T17:26:44.003Z,18.38
2022-11-27T17:29:10.336Z,18.36
2022-11-27T17:31:37.641Z,18.35
2022-11-27T17:34:03.957Z,18.33
2022-11-27T17:36:35.200Z,18.33
2022-11-27T17:39:03.672Z,18.31
2022-11-27T17:41:29.960Z,18.31
2022-11-27T17:43:57.116Z,18.30
2022-11-27T17:46:23.778Z,18.28
2022-11-27T17:48:50.843Z,18.28
2022-11-27T17:51:17.512Z,18.29
2022-11-27T17:53:43.795Z,18.26
2022-11-27T17:56:10.525Z,18.25
2022-11-27T17:58:37.428Z,18.25
2022-11-27T18:01:04.657Z,18.24
2022-11-27T18:03:31.096Z,18.22
2022-11-27T18:05:57.375Z,18.25
2022-11-27T18:08:24.635Z,18.26
2022-11-27T18:10:50.871Z,18.29
2022-11-27T18:13:17.176Z,18.35
2022-11-27T18:15:43.933Z,18.43
2022-11-27T18:18:10.187Z,18.54
2022-11-27T18:20:36.577Z,18.64
2022-11-27T18:23:02.825Z,18.70
2022-11-27T18:25:29.624Z,18.74
2022-11-27T18:27:55.853Z,18.82
2022-11-27T18:30:22.464Z,18.93
2022-11-27T18:32:48.974Z,19.02
2022-11-27T18:35:15.425Z,19.13
2022-11-27T18:37:42.017Z,19.21
2022-11-27T18:40:08.705Z,19.28
2022-11-27T18:42:36.090Z,19.37
2022-11-27T18:45:02.496Z,19.44
2022-11-27T18:47:29.030Z,19.50
2022-11-27T18:49:55.621Z,19.57
2022-11-27T18:52:21.860Z,19.62
2022-11-27T18:54:48.171Z,19.67
2022-11-27T18:57:14.689Z,19.71
2022-11-27T18:59:41.362Z,19.76
2022-11-27T19:02:07.916Z,19.80
2022-11-27T19:04:34.373Z,19.83
2022-11-27T19:07:00.618Z,19.84
2022-11-27T19:09:26.875Z,19.84
2022-11-27T19:11:53.160Z,19.81
2022-11-27T19:14:19.558Z,19.80
2022-11-27T19:16:47.183Z,19.77
2022-11-27T19:19:50.263Z,19.74
2022-11-27T19:22:00.584Z,19.69
2022-11-27T19:24:27.619Z,19.65
2022-11-27T19:26:54.562Z,19.60
2022-11-27T19:29:20.875Z,19.56
2022-11-27T19:31:47.257Z,19.53
2022-11-27T19:34:13.586Z,19.50
2022-11-27T19:36:40.463Z,19.46
2022-11-27T19:39:07.004Z,19.42
2022-11-27T19:41:33.266Z,19.37
2022-11-27T19:43:59.989Z,19.34
2022-11-27T19:46:26.516Z,19.31
2022-11-27T19:48:53.534Z,19.27
2022-11-27T19:51:19.804Z,19.22
2022-11-27T19:53:46.169Z,19.17
2022-11-27T19:56:12.949Z,19.12
2022-11-27T19:58:39.220Z,19.07
2022-11-27T20:01:05.995Z,19.05
2022-11-27T20:03:35.369Z,19.01
2022-11-27T20:06:01.641Z,18.98
2022-11-27T20:08:28.511Z,18.93
2022-11-27T20:10:55.038Z,18.91
2022-11-27T20:13:21.491Z,18.88
2022-11-27T20:15:47.740Z,18.84
2022-11-27T20:18:14.496Z,18.84
2022-11-27T20:20:41.531Z,18.84
2022-11-27T20:23:08.616Z,18.84
2022-11-27T20:25:34.854Z,18.89
2022-11-27T20:28:01.434Z,18.96
2022-11-27T20:30:27.806Z,19.06
2022-11-27T20:32:54.125Z,19.16
2022-11-27T20:35:20.897Z,19.25
2022-11-27T20:37:47.187Z,19.34
2022-11-27T20:40:13.548Z,19.44
2022-11-27T20:42:40.501Z,19.52
2022-11-27T20:45:06.767Z,19.59
2022-11-27T20:47:33.128Z,19.66
2022-11-27T20:49:59.560Z,19.71
2022-11-27T20:52:25.813Z,19.73
2022-11-27T20:54:52.126Z,19.73
2022-11-27T20:57:21.525Z,19.72
2022-11-27T20:59:47.757Z,19.69
2022-11-27T21:02:14.062Z,19.67
2022-11-27T21:04:40.382Z,19.63
2022-11-27T21:07:06.789Z,19.60
2022-11-27T21:09:34.068Z,19.57
2022-11-27T21:12:00.412Z,19.54
2022-11-27T21:14:26.675Z,19.49
2022-11-27T21:16:57.988Z,19.45
2022-11-27T21:19:26.535Z,19.44
2022-11-27T21:21:52.817Z,19.42
2022-11-27T21:24:19.066Z,19.38
2022-11-27T21:26:47.621Z,19.32
2022-11-27T21:29:14.045Z,19.28
2022-11-27T21:31:45.112Z,19.15
2022-11-27T21:34:13.134Z,19.23
2022-11-27T21:36:39.380Z,19.17
2022-11-27T21:39:06.650Z,19.13
2022-11-27T21:41:35.339Z,19.08
2022-11-27T21:44:05.445Z,19.04
2022-11-27T21:46:31.802Z,19.00
2022-11-27T21:48:58.983Z,18.96
2022-11-27T21:51:25.427Z,18.93
2022-11-27T21:53:51.704Z,18.88
2022-11-27T21:56:18.044Z,18.84
2022-11-27T21:58:44.318Z,18.83
2022-11-27T22:01:10.596Z,18.78
2022-11-27T22:03:42.148Z,18.75
2022-11-27T22:06:09.043Z,18.73
2022-11-27T22:08:36.317Z,18.72
2022-11-27T22:11:02.657Z,18.68
2022-11-27T22:13:28.994Z,18.64
2022-11-27T22:15:55.251Z,18.63
2022-11-27T22:18:21.521Z,18.60
2022-11-27T22:20:47.829Z,18.57
2022-11-27T22:23:14.084Z,18.54
2022-11-27T22:25:41.207Z,18.52
2022-11-27T22:28:07.444Z,18.50
2022-11-27T22:30:33.720Z,18.46
2022-11-27T22:33:00.053Z,18.44
2022-11-27T22:35:26.762Z,18.42
2022-11-27T22:37:53.052Z,18.40
2022-11-27T22:40:20.181Z,18.38
2022-11-27T22:43:02.408Z,18.35
2022-11-27T22:45:31.674Z,18.33
2022-11-27T22:47:58.042Z,18.32
2022-11-27T22:50:25.151Z,18.30
2022-11-27T22:52:55.706Z,18.28
2022-11-27T22:55:24.450Z,18.26
2022-11-27T22:57:50.746Z,18.22
2022-11-27T23:00:17.580Z,18.19
2022-11-27T23:02:43.889Z,18.12
2022-11-27T23:05:10.566Z,18.06
2022-11-27T23:07:36.899Z,17.96
2022-11-27T23:10:03.316Z,17.88
2022-11-27T23:12:32.525Z,17.81
2022-11-27T23:18:03.577Z,17.65
2022-11-27T23:20:29.909Z,17.58
2022-11-27T23:22:56.314Z,17.52
2022-11-27T23:25:22.637Z,17.45
2022-11-27T23:27:49.675Z,17.40
2022-11-27T23:30:16.677Z,17.33
2022-11-27T23:32:46.267Z,17.28
2022-11-27T23:35:12.548Z,17.22
2022-11-27T23:37:39.555Z,17.16
2022-11-27T23:40:06.171Z,17.11
2022-11-27T23:42:32.437Z,17.06
2022-11-27T23:45:01.794Z,16.99
2022-11-27T23:47:29.130Z,16.93
2022-11-27T23:49:55.500Z,16.86
2022-11-27T23:52:21.931Z,16.82
2022-11-27T23:54:48.204Z,16.76
2022-11-27T23:57:14.586Z,16.72
2022-11-27T23:59:41.743Z,16.67
